Time;durP1;ratioP1;P1;durP2;ratioP2;P2;SDS_P1;SDS_P2;PMS_P1;PMS_P2;Temp;Humidity;BMP_temperature;BMP_pressure;BME280_temperature;BME280_humidity;BME280_pressure;Samples;Min_cycle;Max_cycle;Signal;HPM_P1;HPM_P2
2023/01/08 00:02:18;;;;;;;63.83;35.45;;;8.50;78.60;;;;;;5093188;28;20036;-14
2023/01/08 00:04:44;;;;;;;58.95;32.38;;;8.50;78.50;;;;;;5092691;28;20035;-14
2023/01/08 00:07:10;;;;;;;61.53;33.40;;;8.50;78.40;;;;;;5092561;28;20036;-13
2023/01/08 00:09:35;;;;;;;72.88;37.92;;;8.50;78.50;;;;;;5092791;28;20021;-14
2023/01/08 00:12:01;;;;;;;67.60;36.58;;;8.60;78.60;;;;;;5093045;28;20552;-14
2023/01/08 00:14:28;;;;;;;70.80;37.03;;;8.60;78.60;;;;;;5074405;28;20024;-15
2023/01/08 00:16:54;;;;;;;75.65;38.55;;;8.50;78.50;;;;;;5092429;28;20038;-14
2023/01/08 00:19:20;;;;;;;91.45;47.17;;;8.50;78.50;;;;;;5092772;28;20106;-14
2023/01/08 00:21:46;;;;;;;64.30;35.75;;;8.50;78.50;;;;;;5092418;28;20017;-13
2023/01/08 00:24:11;;;;;;;60.90;32.00;;;8.40;78.50;;;;;;5093035;28;20047;-14
2023/01/08 00:26:37;;;;;;;56.75;31.58;;;8.40;78.50;;;;;;5092567;28;20498;-14
2023/01/08 00:29:03;;;;;;;58.83;32.70;;;8.40;78.60;;;;;;5092331;28;20028;-14
2023/01/08 00:31:29;;;;;;;63.13;34.00;;;8.40;78.60;;;;;;5092458;28;20058;-14
2023/01/08 00:33:55;;;;;;;63.35;35.97;;;8.50;78.60;;;;;;5092883;28;20487;-13
2023/01/08 00:36:20;;;;;;;70.28;35.83;;;8.50;78.70;;;;;;5092534;28;20025;-13
2023/01/08 00:38:47;;;;;;;63.00;34.20;;;8.50;78.70;;;;;;5091263;28;20530;-13
2023/01/08 00:41:14;;;;;;;71.32;38.22;;;8.50;78.70;;;;;;5092915;28;20048;-14
2023/01/08 00:43:40;;;;;;;67.00;34.10;;;8.50;78.90;;;;;;5092757;28;20031;-15
2023/01/08 00:46:07;;;;;;;57.78;33.78;;;8.50;78.70;;;;;;5092353;28;20020;-14
2023/01/08 00:48:37;;;;;;;84.10;38.00;;;8.50;78.80;;;;;;5092623;28;20103;-14
2023/01/08 00:51:04;;;;;;;74.13;37.55;;;8.50;78.80;;;;;;5092314;28;20028;-13
2023/01/08 00:53:33;;;;;;;76.05;37.85;;;8.50;78.80;;;;;;5092166;28;20020;-13
2023/01/08 00:56:04;;;;;;;90.60;44.28;;;8.50;78.70;;;;;;5092126;28;20467;-13
2023/01/08 00:58:31;;;;;;;57.28;33.40;;;8.50;78.80;;;;;;5092244;28;20024;-15
2023/01/08 01:00:57;;;;;;;53.58;31.38;;;8.40;78.90;;;;;;5092255;28;20115;-15
2023/01/08 01:03:23;;;;;;;68.93;36.47;;;8.40;78.90;;;;;;5092643;28;20523;-13
2023/01/08 01:05:49;;;;;;;53.92;31.70;;;8.40;79.10;;;;;;5092387;28;20020;-15
2023/01/08 01:08:15;;;;;;;62.67;33.38;;;8.50;79.00;;;;;;5092236;28;20365;-15
2023/01/08 01:10:41;;;;;;;66.13;37.15;;;8.50;79.10;;;;;;5092215;28;20062;-13
2023/01/08 01:13:07;;;;;;;80.60;40.17;;;8.50;79.20;;;;;;5091985;28;20095;-14
2023/01/08 01:15:33;;;;;;;63.85;35.10;;;8.40;79.10;;;;;;5092213;28;20461;-14
2023/01/08 01:17:58;;;;;;;74.88;38.58;;;8.40;79.20;;;;;;5092395;28;20038;-13
2023/01/08 01:20:24;;;;;;;84.05;44.63;;;8.40;79.20;;;;;;5091882;28;20032;-13
2023/01/08 01:22:50;;;;;;;78.20;39.00;;;8.40;79.30;;;;;;5091936;28;20077;-13
2023/01/08 01:25:16;;;;;;;71.95;37.20;;;8.40;79.30;;;;;;5092439;28;20020;-13
2023/01/08 01:27:42;;;;;;;83.57;42.75;;;8.40;79.40;;;;;;5091993;28;20024;-14
2023/01/08 01:30:09;;;;;;;69.82;36.22;;;8.30;79.20;;;;;;5092201;28;20391;-14
2023/01/08 01:32:35;;;;;;;66.50;35.17;;;8.30;79.30;;;;;;5093254;28;20051;-14
2023/01/08 01:35:01;;;;;;;73.25;36.40;;;8.20;79.50;;;;;;5095109;28;20464;-15
2023/01/08 01:37:27;;;;;;;70.22;36.03;;;8.30;79.70;;;;;;5094624;28;20039;-15
2023/01/08 01:39:54;;;;;;;59.40;31.52;;;8.30;79.80;;;;;;5095554;28;20487;-15
2023/01/08 01:42:39;;;;;;;59.63;33.10;;;8.30;79.60;;;;;;5095420;28;20442;-14
2023/01/08 01:45:26;;;;;;;;;;;8.30;79.50;;;;;;5095748;28;20028;-14
2023/01/08 01:48:02;;;;;;;79.95;39.78;;;8.40;79.60;;;;;;5095628;28;19904;-13
2023/01/08 01:50:43;;;;;;;70.80;37.38;;;8.40;79.60;;;;;;5092992;28;20464;-14
2023/01/08 01:53:13;;;;;;;64.97;33.85;;;8.40;79.40;;;;;;5094954;28;20035;-13
2023/01/08 01:55:42;;;;;;;71.57;37.33;;;8.40;79.30;;;;;;5095620;28;20107;-15
2023/01/08 01:58:28;;;;;;;71.78;37.13;;;8.40;79.30;;;;;;5095082;28;20107;-16
2023/01/08 02:00:56;;;;;;;66.88;35.92;;;8.40;79.30;;;;;;5095026;28;20510;-14
2023/01/08 02:03:25;;;;;;;69.55;36.13;;;8.40;79.30;;;;;;5095797;28;20444;-13
2023/01/08 02:05:56;;;;;;;81.03;40.53;;;8.40;79.30;;;;;;5094966;28;20012;-13
2023/01/08 02:08:46;;;;;;;68.05;34.45;;;8.40;79.40;;;;;;5095198;28;20107;-13
2023/01/08 02:11:27;;;;;;;74.85;37.92;;;8.40;79.20;;;;;;5095396;28;20036;-15
2023/01/08 02:14:17;;;;;;;74.25;36.95;;;8.50;79.10;;;;;;5094863;28;20032;-15
2023/01/08 02:16:56;;;;;;;74.93;37.25;;;8.60;79.10;;;;;;5085465;28;20048;-14
2023/01/08 02:19:41;;;;;;;66.50;35.08;;;8.50;79.10;;;;;;5095077;28;20024;-14
2023/01/08 02:22:22;;;;;;;68.07;33.15;;;8.60;79.10;;;;;;5095025;28;20046;-13
2023/01/08 02:25:11;;;;;;;82.70;38.30;;;8.60;79.20;;;;;;5094432;28;20111;-13
2023/01/08 02:27:41;;;;;;;57.50;31.08;;;8.60;79.40;;;;;;5094797;28;20468;-15
2023/01/08 02:30:08;;;;;;;60.92;32.92;;;8.60;79.20;;;;;;5094813;28;20425;-15
2023/01/08 02:32:37;;;;;;;74.32;37.30;;;8.60;79.20;;;;;;5094252;28;20079;-13
2023/01/08 02:35:05;;;;;;;73.93;36.53;;;8.60;79.10;;;;;;5094360;28;20059;-15
2023/01/08 02:37:32;;;;;;;75.50;35.80;;;8.60;79.10;;;;;;5095433;28;20024;-14
2023/01/08 02:40:32;;;;;;;71.25;35.00;;;8.60;79.00;;;;;;5094427;28;20024;-16
2023/01/08 02:43:16;;;;;;;66.90;34.85;;;8.70;79.00;;;;;;5094026;28;20036;-14
2023/01/08 02:45:46;;;;;;;66.97;35.10;;;8.70;79.00;;;;;;5093317;28;20040;-16
2023/01/08 02:48:15;;;;;;;71.78;37.78;;;8.70;79.20;;;;;;5094242;28;20440;-14
2023/01/08 02:50:50;;;;;;;67.05;33.55;;;8.70;79.40;;;;;;5094024;28;20032;-15
2023/01/08 02:53:24;;;;;;;60.80;32.25;;;8.60;79.30;;;;;;5094074;28;20487;-14
2023/01/08 02:55:56;;;;;;;;;;;8.60;79.30;;;;;;5094456;28;20107;-15
2023/01/08 02:58:24;;;;;;;71.80;33.70;;;8.60;79.70;;;;;;5093892;28;19904;-15
2023/01/08 03:00:50;;;;;;;59.05;31.33;;;8.60;79.60;;;;;;5093728;28;20060;-14
2023/01/08 03:03:25;;;;;;;64.85;32.47;;;8.60;79.60;;;;;;5094254;28;20058;-15
2023/01/08 03:05:54;;;;;;;76.15;34.42;;;8.60;79.60;;;;;;5094006;28;20375;-14
2023/01/08 03:08:22;;;;;;;60.80;31.40;;;8.60;79.70;;;;;;5093723;28;20024;-14
2023/01/08 03:10:54;;;;;;;58.25;30.63;;;8.60;79.60;;;;;;5093644;28;20051;-14
2023/01/08 03:13:35;;;;;;;47.40;26.35;;;8.50;79.70;;;;;;5093628;28;20052;-15
2023/01/08 03:16:07;;;;;;;55.38;29.20;;;8.60;79.60;;;;;;5094149;28;20135;-14
2023/01/08 03:18:41;;;;;;;62.22;32.20;;;8.60;79.70;;;;;;5093807;28;20016;-15
2023/01/08 03:21:08;;;;;;;68.07;32.83;;;8.60;79.80;;;;;;5093290;28;20115;-13
2023/01/08 03:23:36;;;;;;;60.05;30.75;;;8.60;79.80;;;;;;5093855;28;20148;-15
2023/01/08 03:26:04;;;;;;;54.13;28.35;;;8.60;79.80;;;;;;5093431;28;20020;-15
2023/01/08 03:28:35;;;;;;;54.47;29.95;;;8.60;79.70;;;;;;5093398;28;20103;-14
2023/01/08 03:31:01;;;;;;;79.82;40.05;;;8.60;79.70;;;;;;5093025;28;20117;-15
2023/01/08 03:33:30;;;;;;;67.00;32.33;;;8.60;79.90;;;;;;5093657;28;20028;-15
2023/01/08 03:36:00;;;;;;;63.78;32.70;;;8.60;79.90;;;;;;5093065;28;20035;-14
2023/01/08 03:38:35;;;;;;;81.28;40.25;;;8.60;79.80;;;;;;5093151;28;20495;-14
2023/01/08 03:41:12;;;;;;;82.57;40.58;;;8.50;80.00;;;;;;5093045;28;20024;-14
2023/01/08 03:43:38;;;;;;;63.10;33.63;;;8.50;80.00;;;;;;5093154;28;20027;-15
2023/01/08 03:46:12;;;;;;;64.20;32.78;;;8.40;80.20;;;;;;5093090;28;20100;-14
2023/01/08 03:48:39;;;;;;;;;;;8.40;80.30;;;;;;5093615;28;20027;-14
2023/01/08 03:51:08;;;;;;;74.38;35.42;;;8.30;80.40;;;;;;5092783;28;19908;-15
2023/01/08 03:53:34;;;;;;;55.45;30.30;;;8.30;80.40;;;;;;5093386;28;20016;-14
2023/01/08 03:56:00;;;;;;;73.13;34.60;;;8.30;80.60;;;;;;5092885;28;20136;-15
2023/01/08 03:58:26;;;;;;;77.45;39.17;;;8.30;80.80;;;;;;5093326;28;20490;-15
2023/01/08 04:00:52;;;;;;;73.65;37.55;;;8.30;81.00;;;;;;5093098;28;20036;-16
2023/01/08 04:03:18;;;;;;;82.75;41.55;;;8.20;80.80;;;;;;5093051;28;20047;-16
2023/01/08 04:05:44;;;;;;;64.90;32.72;;;8.20;80.80;;;;;;5092714;28;20035;-16
2023/01/08 04:08:10;;;;;;;71.60;36.40;;;8.10;81.00;;;;;;5092729;28;20058;-15
2023/01/08 04:10:36;;;;;;;71.50;33.85;;;8.10;81.20;;;;;;5093038;28;20028;-15
2023/01/08 04:13:02;;;;;;;60.03;32.00;;;8.10;81.20;;;;;;5091250;28;20484;-14
2023/01/08 04:15:29;;;;;;;77.05;38.65;;;8.10;81.30;;;;;;5092806;28;20051;-15
2023/01/08 04:17:55;;;;;;;65.85;34.05;;;8.10;81.30;;;;;;5092564;28;20028;-14
2023/01/08 04:20:21;;;;;;;72.15;36.72;;;8.10;81.30;;;;;;5092518;28;20028;-15
2023/01/08 04:22:47;;;;;;;62.78;33.47;;;8.10;81.40;;;;;;5092500;28;20024;-16
2023/01/08 04:25:13;;;;;;;52.78;28.08;;;8.00;81.40;;;;;;5092793;28;20036;-15
2023/01/08 04:27:39;;;;;;;63.80;31.48;;;8.10;81.40;;;;;;5092803;28;20459;-15
2023/01/08 04:30:06;;;;;;;61.35;32.97;;;8.10;81.30;;;;;;5093057;28;20495;-16
2023/01/08 04:32:32;;;;;;;63.97;32.38;;;8.20;81.30;;;;;;5092276;28;20158;-15
2023/01/08 04:34:58;;;;;;;77.05;37.80;;;8.20;81.10;;;;;;5092083;28;20029;-16
2023/01/08 04:37:24;;;;;;;71.90;37.40;;;8.30;81.10;;;;;;5091895;28;20024;-15
2023/01/08 04:39:49;;;;;;;66.25;34.97;;;8.30;81.00;;;;;;5092459;28;20384;-15
2023/01/08 04:42:15;;;;;;;66.40;35.45;;;8.30;81.00;;;;;;5092419;28;20107;-16
2023/01/08 04:44:41;;;;;;;58.70;32.80;;;8.20;81.00;;;;;;5092725;28;20031;-15
2023/01/08 04:47:07;;;;;;;63.88;34.85;;;8.20;81.20;;;;;;5092120;28;20495;-16
2023/01/08 04:49:33;;;;;;;60.40;32.30;;;8.30;81.00;;;;;;5092360;28;20111;-15
2023/01/08 04:51:59;;;;;;;60.97;32.65;;;8.30;81.00;;;;;;5090956;28;20024;-16
2023/01/08 04:54:25;;;;;;;66.43;33.45;;;8.30;80.90;;;;;;5090963;28;20029;-15
2023/01/08 04:56:51;;;;;;;60.05;33.40;;;8.30;81.00;;;;;;5092323;28;20066;-15
2023/01/08 04:59:17;;;;;;;83.38;41.63;;;8.30;81.00;;;;;;5092262;28;20082;-16
2023/01/08 05:01:43;;;;;;;80.68;41.13;;;8.30;81.20;;;;;;5092539;28;20376;-15
2023/01/08 05:04:10;;;;;;;77.20;37.50;;;8.20;81.30;;;;;;5092488;28;20436;-15
2023/01/08 05:06:36;;;;;;;73.90;38.25;;;8.10;81.20;;;;;;5092126;28;20483;-15
2023/01/08 05:09:03;;;;;;;67.90;35.72;;;8.10;81.30;;;;;;5095135;28;20034;-14
2023/01/08 05:11:28;;;;;;;59.55;31.83;;;8.10;81.60;;;;;;5096409;28;20032;-15
2023/01/08 05:13:55;;;;;;;54.92;31.23;;;8.00;81.60;;;;;;5096086;28;20494;-16
2023/01/08 05:16:22;;;;;;;57.75;31.27;;;8.00;81.60;;;;;;5095949;28;20061;-15
2023/01/08 05:18:48;;;;;;;57.90;30.75;;;8.10;81.80;;;;;;5096140;28;20024;-15
2023/01/08 05:21:14;;;;;;;81.47;41.97;;;8.10;81.90;;;;;;5095869;28;20363;-15
2023/01/08 05:23:46;;;;;;;79.15;40.83;;;8.10;82.10;;;;;;5094619;28;20032;-15
2023/01/08 05:26:18;;;;;;;74.43;38.15;;;8.10;82.50;;;;;;5095875;28;20476;-15
2023/01/08 05:28:44;;;;;;;60.67;32.50;;;8.00;82.90;;;;;;5096114;28;20083;-15
2023/01/08 05:31:11;;;;;;;82.35;41.55;;;8.00;82.40;;;;;;5095205;28;20038;-14
2023/01/08 05:33:37;;;;;;;72.65;35.63;;;8.00;82.30;;;;;;5095843;28;20452;-15
2023/01/08 05:36:05;;;;;;;59.35;30.92;;;7.90;82.30;;;;;;5094228;28;20101;-16
2023/01/08 05:38:31;;;;;;;63.83;33.28;;;8.00;82.20;;;;;;5095642;28;20020;-15
2023/01/08 05:40:57;;;;;;;73.20;34.72;;;8.00;82.30;;;;;;5095339;28;20165;-15
2023/01/08 05:43:24;;;;;;;60.10;32.42;;;8.00;82.20;;;;;;5095413;28;20055;-15
2023/01/08 05:45:49;;;;;;;74.53;38.75;;;8.00;82.20;;;;;;5095404;28;20043;-16
2023/01/08 05:48:15;;;;;;;75.07;36.85;;;8.00;82.20;;;;;;5096029;28;20067;-16
2023/01/08 05:50:41;;;;;;;70.57;35.45;;;8.00;82.20;;;;;;5095660;28;20032;-15
2023/01/08 05:53:07;;;;;;;58.20;31.08;;;8.10;82.30;;;;;;5094988;28;20119;-15
2023/01/08 05:55:34;;;;;;;83.13;42.03;;;8.00;82.30;;;;;;5095164;28;20025;-16
2023/01/08 05:58:01;;;;;;;78.22;39.88;;;8.00;82.40;;;;;;5095501;28;20511;-14
2023/01/08 06:00:27;;;;;;;79.32;39.83;;;8.00;82.30;;;;;;5095388;28;20028;-15
2023/01/08 06:02:53;;;;;;;78.47;39.85;;;8.00;82.20;;;;;;5095159;28;20391;-15
2023/01/08 06:05:19;;;;;;;80.95;42.25;;;8.00;82.20;;;;;;5095285;28;20337;-14
2023/01/08 06:07:45;;;;;;;82.82;42.20;;;8.00;82.30;;;;;;5095306;28;20030;-15
2023/01/08 06:10:11;;;;;;;83.03;41.40;;;7.90;82.30;;;;;;5094950;28;20024;-15
2023/01/08 06:12:37;;;;;;;81.90;41.08;;;7.90;82.30;;;;;;5095104;28;20107;-14
2023/01/08 06:15:04;;;;;;;78.47;42.55;;;7.90;82.50;;;;;;5093262;28;20036;-15
2023/01/08 06:17:31;;;;;;;72.97;36.58;;;7.80;82.40;;;;;;5095172;28;20016;-14
2023/01/08 06:19:57;;;;;;;76.82;39.00;;;7.70;82.70;;;;;;5094736;28;20028;-15
2023/01/08 06:22:22;;;;;;;78.95;41.03;;;7.70;83.00;;;;;;5095178;28;20056;-15
2023/01/08 06:24:48;;;;;;;81.93;40.53;;;7.60;83.00;;;;;;5095093;28;20425;-14
2023/01/08 06:27:14;;;;;;;69.55;36.78;;;7.60;83.00;;;;;;5094710;28;20031;-14
2023/01/08 06:29:40;;;;;;;78.32;41.58;;;7.60;83.00;;;;;;5094678;28;20056;-15
2023/01/08 06:32:06;;;;;;;81.43;41.53;;;7.70;82.90;;;;;;5094241;28;20044;-14
2023/01/08 06:34:32;;;;;;;81.45;42.45;;;7.70;82.90;;;;;;5094734;28;20028;-14
2023/01/08 06:36:58;;;;;;;56.92;33.20;;;7.60;83.40;;;;;;5094166;28;20540;-14
2023/01/08 06:39:24;;;;;;;62.15;34.92;;;7.60;83.30;;;;;;5094406;28;20020;-15
2023/01/08 06:41:50;;;;;;;72.97;39.65;;;7.70;83.10;;;;;;5094572;28;20042;-15
2023/01/08 06:44:15;;;;;;;61.20;34.60;;;7.70;83.20;;;;;;5094641;28;20043;-14
2023/01/08 06:46:41;;;;;;;71.88;37.22;;;7.70;83.20;;;;;;5094138;28;20480;-15
2023/01/08 06:49:08;;;;;;;75.43;38.97;;;7.80;83.20;;;;;;5093992;28;20031;-14
2023/01/08 06:51:34;;;;;;;76.60;40.42;;;7.80;83.10;;;;;;5093995;28;20116;-15
2023/01/08 06:54:00;;;;;;;73.95;37.63;;;7.80;82.90;;;;;;5094251;28;20372;-15
2023/01/08 06:56:26;;;;;;;72.32;36.78;;;7.80;82.80;;;;;;5092862;28;20498;-15
2023/01/08 06:58:52;;;;;;;79.60;39.95;;;7.80;82.80;;;;;;5094113;28;20028;-15
2023/01/08 07:01:18;;;;;;;69.65;37.63;;;7.80;82.80;;;;;;5093916;28;20035;-15
2023/01/08 07:03:45;;;;;;;71.50;36.13;;;7.80;82.70;;;;;;5094223;28;20020;-14
2023/01/08 07:06:16;;;;;;;72.97;37.92;;;7.80;82.70;;;;;;5094071;28;20044;-15
2023/01/08 07:08:43;;;;;;;70.25;35.97;;;7.80;82.90;;;;;;5093922;28;20074;-15
2023/01/08 07:11:09;;;;;;;63.75;34.58;;;7.80;83.00;;;;;;5093528;28;20028;-15
2023/01/08 07:13:35;;;;;;;73.30;38.97;;;7.80;83.00;;;;;;5094443;28;20035;-15
2023/01/08 07:16:08;;;;;;;78.60;40.78;;;7.80;83.00;;;;;;5093607;28;20039;-15
2023/01/08 07:18:35;;;;;;;72.70;39.70;;;7.90;82.90;;;;;;5093976;28;20069;-14
2023/01/08 07:21:05;;;;;;;68.60;38.33;;;7.80;82.80;;;;;;5093517;28;20023;-15
2023/01/08 07:23:32;;;;;;;73.13;40.40;;;7.80;82.60;;;;;;5093698;28;20103;-15
2023/01/08 07:26:02;;;;;;;70.28;40.15;;;7.80;82.60;;;;;;5093425;28;20024;-14
2023/01/08 07:28:29;;;;;;;60.50;33.80;;;7.70;82.70;;;;;;5093451;28;20069;-14
2023/01/08 07:30:55;;;;;;;68.97;39.10;;;7.70;82.80;;;;;;5092481;28;20028;-14
2023/01/08 07:33:22;;;;;;;70.60;40.58;;;7.70;82.80;;;;;;5093600;28;20048;-16
2023/01/08 07:35:55;;;;;;;69.65;39.75;;;7.70;82.80;;;;;;5093586;28;20028;-15
2023/01/08 07:38:21;;;;;;;72.30;40.80;;;7.70;82.70;;;;;;5093319;28;20029;-14
2023/01/08 07:40:47;;;;;;;73.72;39.08;;;7.60;82.60;;;;;;5093409;28;20023;-14
2023/01/08 07:43:13;;;;;;;67.47;38.28;;;7.60;82.60;;;;;;5093335;28;20024;-14
2023/01/08 07:45:40;;;;;;;64.65;36.47;;;7.60;82.40;;;;;;5093430;28;20024;-14
2023/01/08 07:48:06;;;;;;;56.03;32.15;;;7.60;82.30;;;;;;5093110;28;20020;-14
2023/01/08 07:50:32;;;;;;;67.50;39.08;;;7.60;82.30;;;;;;5093264;28;20036;-16
2023/01/08 07:52:59;;;;;;;56.50;31.88;;;7.60;82.30;;;;;;5092809;28;20024;-14
2023/01/08 07:55:27;;;;;;;58.35;31.23;;;7.70;82.40;;;;;;5092841;28;20052;-15
2023/01/08 07:57:53;;;;;;;53.22;29.48;;;7.70;82.40;;;;;;5092978;28;20024;-16
2023/01/08 08:00:19;;;;;;;63.22;34.08;;;7.80;82.30;;;;;;5093155;28;20028;-15
2023/01/08 08:02:45;;;;;;;66.25;36.72;;;7.90;82.00;;;;;;5092804;28;20028;-14
2023/01/08 08:05:11;;;;;;;70.85;39.30;;;7.90;81.80;;;;;;5092751;28;20529;-14
2023/01/08 08:07:37;;;;;;;59.08;33.67;;;8.00;81.60;;;;;;5092850;28;20016;-12
2023/01/08 08:10:04;;;;;;;59.53;32.42;;;8.10;81.30;;;;;;5092770;28;20028;-13
2023/01/08 08:12:31;;;;;;;53.38;30.52;;;8.20;81.10;;;;;;5093175;28;20028;-15
2023/01/08 08:14:57;;;;;;;52.70;29.27;;;8.20;81.00;;;;;;5092703;28;20172;-14
2023/01/08 08:17:23;;;;;;;56.42;30.35;;;8.30;80.80;;;;;;5092890;28;20509;-15
2023/01/08 08:19:48;;;;;;;53.58;30.33;;;8.30;80.40;;;;;;5092963;28;20020;-14
2023/01/08 08:22:15;;;;;;;54.20;28.42;;;8.30;80.10;;;;;;5091193;28;20043;-14
2023/01/08 08:24:40;;;;;;;53.78;30.20;;;8.30;79.80;;;;;;5092566;28;20377;-14
2023/01/08 08:27:06;;;;;;;65.07;35.05;;;8.30;80.10;;;;;;5092724;28;20130;-15
2023/01/08 08:29:32;;;;;;;58.53;30.67;;;8.30;79.90;;;;;;5092550;28;20488;-14
2023/01/08 08:31:58;;;;;;;65.97;35.55;;;8.30;80.10;;;;;;5092379;28;20051;-15
2023/01/08 08:34:24;;;;;;;68.95;36.38;;;8.30;80.00;;;;;;5092337;28;20035;-14
2023/01/08 08:36:50;;;;;;;76.15;37.95;;;8.30;79.80;;;;;;5092053;28;20448;-14
2023/01/08 08:39:16;;;;;;;71.55;37.47;;;8.40;80.20;;;;;;5092625;28;20039;-15
2023/01/08 08:41:42;;;;;;;77.03;37.60;;;8.40;80.60;;;;;;5092804;28;20437;-13
2023/01/08 08:44:08;;;;;;;78.32;40.15;;;8.40;80.60;;;;;;5096223;28;20048;-14
2023/01/08 08:46:35;;;;;;;82.38;40.60;;;8.40;80.60;;;;;;5096647;28;20488;-12
2023/01/08 08:49:01;;;;;;;74.65;39.72;;;8.40;80.80;;;;;;5096441;28;20024;-13
2023/01/08 08:51:27;;;;;;;74.70;39.83;;;8.50;80.70;;;;;;5096506;28;20081;-13
2023/01/08 08:53:58;;;;;;;71.00;37.20;;;8.50;80.80;;;;;;5096711;28;20051;-12
2023/01/08 08:56:24;;;;;;;82.50;41.60;;;8.50;80.50;;;;;;5096318;28;20020;-13
2023/01/08 08:58:51;;;;;;;78.55;40.65;;;8.50;80.50;;;;;;5096312;28;20069;-14
2023/01/08 09:01:17;;;;;;;78.65;38.70;;;8.60;80.40;;;;;;5096724;28;20024;-13
2023/01/08 09:03:42;;;;;;;83.68;42.17;;;8.60;80.30;;;;;;5096316;28;20024;-14
2023/01/08 09:06:13;;;;;;;75.68;38.85;;;8.70;80.20;;;;;;5096431;28;20091;-14
2023/01/08 09:08:39;;;;;;;83.40;42.00;;;8.70;80.20;;;;;;5096716;28;20024;-13
2023/01/08 09:11:05;;;;;;;83.47;40.90;;;8.70;80.00;;;;;;5095865;28;20020;-15
2023/01/08 09:13:31;;;;;;;80.65;41.58;;;8.80;79.80;;;;;;5096303;28;20065;-14
2023/01/08 09:15:58;;;;;;;72.38;38.83;;;8.70;79.60;;;;;;5095916;28;20411;-14
2023/01/08 09:18:24;;;;;;;70.55;36.78;;;8.70;79.80;;;;;;5095908;28;20054;-13
2023/01/08 09:20:50;;;;;;;80.95;41.63;;;8.80;79.80;;;;;;5094331;28;20016;-13
2023/01/08 09:23:16;;;;;;;81.45;41.28;;;8.80;80.30;;;;;;5095423;28;20027;-13
2023/01/08 09:25:42;;;;;;;75.97;38.90;;;8.80;80.10;;;;;;5095763;28;20440;-14
2023/01/08 09:28:11;;;;;;;71.80;36.70;;;8.80;80.10;;;;;;5095803;28;20023;-14
2023/01/08 09:30:38;;;;;;;84.93;42.08;;;8.90;80.00;;;;;;5096729;28;20380;-13
2023/01/08 09:33:04;;;;;;;83.13;43.42;;;8.80;80.00;;;;;;5095348;28;20133;-13
2023/01/08 09:35:31;;;;;;;79.72;40.83;;;8.80;80.10;;;;;;5095406;28;20129;-13
2023/01/08 09:37:58;;;;;;;83.47;42.30;;;8.90;80.00;;;;;;5095971;28;20095;-15
2023/01/08 09:40:55;;;;;;;77.97;40.65;;;8.90;80.30;;;;;;5096124;28;20024;-14
2023/01/08 09:43:24;;;;;;;84.65;43.30;;;8.90;80.80;;;;;;5095559;28;20020;-15
2023/01/08 09:45:57;;;;;;;84.63;45.80;;;8.90;80.60;;;;;;5095781;28;20027;-13
2023/01/08 09:48:26;;;;;;;83.25;42.42;;;8.90;80.50;;;;;;5095360;28;20107;-15
2023/01/08 09:50:52;;;;;;;78.78;41.55;;;9.00;80.40;;;;;;5095236;28;20107;-14
2023/01/08 09:53:18;;;;;;;83.10;41.13;;;9.10;79.90;;;;;;5095015;28;20414;-13
2023/01/08 09:55:55;;;;;;;83.80;42.75;;;9.00;79.60;;;;;;5095878;28;20035;-11
2023/01/08 09:58:26;;;;;;;79.03;40.55;;;9.00;79.60;;;;;;5095249;28;20438;-14
2023/01/08 10:00:53;;;;;;;76.40;41.20;;;8.90;79.50;;;;;;5095198;28;20052;-13
2023/01/08 10:03:24;;;;;;;78.90;40.75;;;8.90;79.30;;;;;;5095642;28;20044;-14
2023/01/08 10:05:51;;;;;;;86.47;42.03;;;8.90;79.50;;;;;;5095368;28;20039;-13
2023/01/08 10:08:17;;;;;;;73.25;37.28;;;9.00;79.70;;;;;;5094977;28;20028;-14
2023/01/08 10:10:44;;;;;;;80.15;41.08;;;9.10;79.60;;;;;;5094177;28;20024;-12
2023/01/08 10:13:12;;;;;;;84.18;42.22;;;9.20;79.90;;;;;;5094675;28;20028;-14
2023/01/08 10:15:39;;;;;;;82.85;41.90;;;9.30;79.40;;;;;;5094831;28;20047;-14
2023/01/08 10:18:11;;;;;;;85.00;44.45;;;9.30;79.00;;;;;;5095089;28;20052;-14
2023/01/08 10:20:38;;;;;;;75.00;39.25;;;9.30;79.10;;;;;;5095004;28;20049;-13
2023/01/08 10:23:16;;;;;;;78.93;43.20;;;9.20;79.30;;;;;;5094512;28;20476;-14
2023/01/08 10:25:54;;;;;;;87.43;43.50;;;9.20;79.20;;;;;;5095376;28;20046;-15
2023/01/08 10:28:21;;;;;;;84.22;43.78;;;9.20;79.30;;;;;;5093294;28;20063;-13
2023/01/08 10:30:49;;;;;;;84.15;42.78;;;9.10;79.30;;;;;;5094401;28;20098;-15
2023/01/08 10:33:24;;;;;;;84.95;43.63;;;9.00;79.60;;;;;;5094384;28;20461;-14
2023/01/08 10:36:00;;;;;;;79.43;40.15;;;9.00;79.70;;;;;;5094336;28;20024;-13
2023/01/08 10:38:31;;;;;;;80.82;40.50;;;9.00;79.90;;;;;;5094480;28;20399;-12
2023/01/08 10:40:57;;;;;;;80.95;41.35;;;9.00;79.90;;;;;;5094198;28;20095;-14
2023/01/08 10:43:31;;;;;;;80.00;40.22;;;9.00;79.80;;;;;;5094595;28;20051;-12
2023/01/08 10:46:03;;;;;;;70.63;37.30;;;8.90;79.90;;;;;;5094403;28;20035;-13
2023/01/08 10:48:52;;;;;;;84.70;43.67;;;9.00;80.00;;;;;;5094569;28;20020;-13
2023/01/08 10:51:22;;;;;;;82.18;41.05;;;9.00;80.50;;;;;;5094085;28;20525;-13
2023/01/08 10:53:49;;;;;;;78.82;41.90;;;9.00;80.60;;;;;;5094223;28;20120;-13
2023/01/08 10:56:29;;;;;;;72.90;38.83;;;9.00;80.60;;;;;;5094105;28;20032;-13
2023/01/08 10:58:56;;;;;;;75.78;39.00;;;9.00;80.40;;;;;;5093907;28;20028;-13
2023/01/08 11:01:27;;;;;;;88.72;46.72;;;9.10;80.50;;;;;;5093232;28;20020;-14
2023/01/08 11:03:56;;;;;;;87.28;44.67;;;9.10;81.10;;;;;;5094055;28;20394;-14
2023/01/08 11:06:26;;;;;;;85.70;42.65;;;9.10;80.80;;;;;;5093089;28;20031;-13
2023/01/08 11:08:55;;;;;;;88.47;43.83;;;9.10;80.60;;;;;;5093902;28;20048;-13
2023/01/08 11:11:22;;;;;;;77.80;41.08;;;9.10;80.80;;;;;;5093800;28;20058;-14
2023/01/08 11:13:57;;;;;;;77.05;39.67;;;9.00;81.00;;;;;;5093740;28;20415;-13
2023/01/08 11:16:34;;;;;;;77.97;38.75;;;9.00;81.30;;;;;;5093583;28;20443;-13
2023/01/08 11:19:00;;;;;;;78.97;39.83;;;9.00;81.00;;;;;;5093606;28;20019;-14
2023/01/08 11:21:32;;;;;;;82.13;41.75;;;9.00;80.90;;;;;;5093489;28;20054;-13
2023/01/08 11:24:17;;;;;;;76.47;39.92;;;9.00;81.10;;;;;;5093562;28;20024;-13
2023/01/08 11:26:50;;;;;;;82.35;39.83;;;9.00;80.90;;;;;;5093687;28;20054;-14
2023/01/08 11:29:22;;;;;;;74.18;37.45;;;9.00;81.10;;;;;;5092221;28;20119;-14
2023/01/08 11:32:14;;;;;;;76.28;39.53;;;8.90;81.00;;;;;;5093640;28;20513;-13
2023/01/08 11:34:52;;;;;;;72.50;37.28;;;9.00;81.30;;;;;;5093377;28;20030;-13
2023/01/08 11:37:37;;;;;;;76.10;38.20;;;8.90;81.30;;;;;;5093181;28;20089;-13
2023/01/08 11:40:17;;;;;;;72.22;37.13;;;8.90;81.30;;;;;;5093286;28;20095;-13
2023/01/08 11:43:01;;;;;;;75.18;36.65;;;8.90;81.20;;;;;;5093600;28;20103;-14
2023/01/08 11:45:36;;;;;;;78.20;37.38;;;8.80;81.30;;;;;;5093255;28;20032;-14
2023/01/08 11:48:29;;;;;;;76.45;39.38;;;8.80;81.50;;;;;;5093472;28;20028;-13
2023/01/08 11:51:32;;;;;;;82.50;39.42;;;8.80;82.10;;;;;;5093027;28;20024;-14
2023/01/08 11:54:23;;;;;;;67.15;35.45;;;8.80;81.80;;;;;;5093356;28;20077;-14
2023/01/08 11:57:18;;;;;;;76.28;37.50;;;8.70;81.80;;;;;;5092879;28;20032;-13
2023/01/08 12:00:20;;;;;;;70.82;36.20;;;8.80;81.60;;;;;;5093352;28;20136;-13
2023/01/08 12:02:51;;;;;;;75.38;36.65;;;8.80;82.00;;;;;;5093025;28;20545;-13
2023/01/08 12:05:35;;;;;;;71.57;34.58;;;8.70;81.90;;;;;;5092895;28;20016;-15
2023/01/08 12:08:19;;;;;;;68.83;33.00;;;8.70;82.20;;;;;;5093391;28;20089;-13
2023/01/08 12:11:19;;;;;;;59.47;31.17;;;8.60;81.90;;;;;;5093045;28;20074;-13
2023/01/08 12:14:03;;;;;;;66.82;30.20;;;8.60;81.80;;;;;;5093027;28;20047;-14
2023/01/08 12:16:47;;;;;;;;;;;8.60;82.00;;;;;;5093028;28;20028;-14
2023/01/08 12:19:31;;;;;;;63.08;28.33;;;8.50;82.10;;;;;;5092856;28;19904;-13
2023/01/08 12:22:02;;;;;;;57.58;29.20;;;8.40;82.00;;;;;;5092556;28;20036;-13
2023/01/08 12:24:49;;;;;;;65.95;31.73;;;8.40;82.10;;;;;;5092792;28;20028;-14
2023/01/08 12:27:44;;;;;;;66.15;30.17;;;8.40;82.20;;;;;;5092814;28;20055;-13
2023/01/08 12:30:09;;;;;;;;;;;8.30;82.40;;;;;;5093240;28;20031;-14
2023/01/08 12:32:45;;;;;;;59.22;28.63;;;8.30;82.90;;;;;;5092548;28;19915;-13
2023/01/08 12:35:21;;;;;;;73.25;33.63;;;8.20;82.90;;;;;;5092580;28;20024;-14
2023/01/08 12:38:05;;;;;;;59.17;29.80;;;8.20;83.60;;;;;;5092492;28;20066;-14
2023/01/08 12:40:39;;;;;;;72.17;35.07;;;8.20;83.20;;;;;;5092685;28;20024;-14
2023/01/08 12:43:18;;;;;;;81.57;38.78;;;8.10;83.40;;;;;;5092548;28;20012;-14
2023/01/08 12:45:47;;;;;;;72.80;37.15;;;8.10;83.30;;;;;;5092467;28;20028;-15
2023/01/08 12:48:26;;;;;;;77.63;36.97;;;8.10;83.70;;;;;;5092412;28;20498;-15
2023/01/08 12:51:16;;;;;;;87.70;37.78;;;8.00;84.40;;;;;;5090829;28;20028;-14
2023/01/08 12:54:18;;;;;;;88.03;36.92;;;8.00;84.20;;;;;;5092768;28;20060;-14